Time;durP1;ratioP1;P1;durP2;ratioP2;P2;SDS_P1;SDS_P2;PMS_P1;PMS_P2;Temp;Humidity;BMP_temperature;BMP_pressure;BME280_temperature;BME280_humidity;BME280_pressure;Samples;Min_cycle;Max_cycle;Signal;HPM_P1;HPM_P2
2022/11/17 00:00:37;;;;;;;7.18;5.78;;;9.70;99.90;;;;;;5033972;28;20107;-76
2022/11/17 00:03:03;;;;;;;6.10;5.50;;;9.70;99.90;;;;;;5052467;28;20108;-76
2022/11/17 00:05:29;;;;;;;5.57;5.07;;;9.70;99.90;;;;;;5068147;28;20613;-77
2022/11/17 00:07:54;;;;;;;6.38;5.75;;;9.60;99.90;;;;;;5033987;28;20017;-76
2022/11/17 00:10:20;;;;;;;6.57;5.95;;;9.40;99.90;;;;;;5067756;28;20025;-77
2022/11/17 00:15:30;;;;;;;9.30;7.30;;;9.40;99.90;;;;;;5052813;28;20029;-76
2022/11/17 00:23:45;;;;;;;9.75;7.60;;;9.40;99.90;;;;;;5052150;28;20078;-77
2022/11/17 00:26:22;;;;;;;9.35;7.38;;;9.40;99.90;;;;;;5034152;28;20017;-77
2022/11/17 00:28:56;;;;;;;10.45;8.23;;;9.30;99.90;;;;;;5033890;28;20021;-76
2022/11/17 00:34:12;;;;;;;4.55;4.15;;;9.20;99.90;;;;;;5051917;28;20082;-80
2022/11/17 00:36:43;;;;;;;4.38;3.72;;;9.30;99.90;;;;;;5033971;28;20027;-80
2022/11/17 00:39:10;;;;;;;4.18;3.88;;;9.30;99.90;;;;;;5051469;28;20037;-80
2022/11/17 00:41:36;;;;;;;4.35;3.95;;;9.40;99.90;;;;;;5051728;28;20641;-77
2022/11/17 00:44:02;;;;;;;4.07;3.78;;;9.50;99.90;;;;;;5044619;28;20033;-76
2022/11/17 00:46:28;;;;;;;3.78;3.45;;;9.50;99.90;;;;;;5031461;28;20021;-77
2022/11/17 00:48:54;;;;;;;3.83;3.53;;;9.50;99.90;;;;;;5031596;28;20021;-76
2022/11/17 00:51:20;;;;;;;6.65;4.32;;;9.50;99.90;;;;;;5014790;28;20442;-76
2022/11/17 00:53:47;;;;;;;5.15;4.63;;;9.50;99.90;;;;;;5020309;28;20075;-76
2022/11/17 00:56:13;;;;;;;4.30;4.00;;;9.50;99.90;;;;;;5035447;28;20030;-77
2022/11/17 00:58:38;;;;;;;4.78;4.38;;;9.50;99.90;;;;;;5035626;28;20141;-77
2022/11/17 01:01:05;;;;;;;5.50;5.00;;;9.50;99.90;;;;;;5017691;28;20033;-77
2022/11/17 01:03:30;;;;;;;4.72;4.18;;;9.50;99.90;;;;;;5017517;28;20510;-76
2022/11/17 01:06:16;;;;;;;4.30;3.85;;;9.50;99.90;;;;;;5017673;28;20021;-77
2022/11/17 01:08:42;;;;;;;3.53;3.33;;;9.50;99.90;;;;;;5035335;28;20074;-77
2022/11/17 01:11:16;;;;;;;3.47;3.25;;;9.50;99.90;;;;;;5017599;28;20021;-76
2022/11/17 01:13:44;;;;;;;3.20;2.92;;;9.50;99.90;;;;;;5021219;28;20024;-77
2022/11/17 01:16:15;;;;;;;2.65;2.45;;;9.50;99.90;;;;;;5037188;28;20487;-76
2022/11/17 01:18:42;;;;;;;4.15;2.50;;;9.50;99.90;;;;;;5055028;28;20099;-76
2022/11/17 01:21:14;;;;;;;5.38;2.70;;;9.50;99.90;;;;;;5054834;28;20612;-77
2022/11/17 01:23:41;;;;;;;2.80;2.60;;;9.50;99.90;;;;;;5054738;28;20033;-76
2022/11/17 01:26:13;;;;;;;2.80;2.60;;;9.50;99.90;;;;;;5036816;28;20392;-76
2022/11/17 01:28:39;;;;;;;2.30;2.20;;;9.50;99.90;;;;;;5036913;28;20031;-77
2022/11/17 01:31:10;;;;;;;2.97;2.55;;;9.40;99.90;;;;;;5036795;28;20028;-77
2022/11/17 01:33:36;;;;;;;2.80;2.60;;;9.50;99.90;;;;;;5054797;28;20028;-76
2022/11/17 01:36:04;;;;;;;2.75;2.13;;;9.50;99.90;;;;;;5036645;28;20025;-76
2022/11/17 01:38:31;;;;;;;2.20;2.00;;;9.50;99.90;;;;;;5036710;28;20013;-77
2022/11/17 01:41:01;;;;;;;2.42;2.25;;;9.50;99.90;;;;;;5054634;28;20100;-76
2022/11/17 01:43:48;;;;;;;2.58;2.38;;;9.50;99.90;;;;;;5052511;28;20036;-76
2022/11/17 01:46:34;;;;;;;3.33;2.40;;;9.60;99.90;;;;;;5034060;28;20026;-77
2022/11/17 01:49:16;;;;;;;2.70;2.50;;;9.60;99.90;;;;;;4997023;28;20636;-76
2022/11/17 01:51:46;;;;;;;2.28;2.17;;;9.60;99.90;;;;;;5014763;28;20053;-77
2022/11/17 01:54:28;;;;;;;2.22;2.10;;;9.60;99.90;;;;;;5069139;28;20417;-75
2022/11/17 01:57:00;;;;;;;3.17;2.35;;;9.60;99.90;;;;;;5067786;28;20082;-74
2022/11/17 01:59:35;;;;;;;2.55;2.45;;;9.60;99.90;;;;;;5067744;28;20025;-77
2022/11/17 02:02:01;;;;;;;3.78;2.00;;;9.60;99.90;;;;;;5067619;28;20025;-74
2022/11/17 02:04:33;;;;;;;2.20;2.10;;;9.70;99.90;;;;;;5068363;28;20078;-75
2022/11/17 02:07:01;;;;;;;;;;;9.60;99.90;;;;;;5069420;28;20025;-77
2022/11/17 02:09:27;;;;;;;2.05;1.95;;;9.60;99.90;;;;;;5068681;28;19901;-77
2022/11/17 02:11:57;;;;;;;2.33;2.22;;;9.60;99.90;;;;;;5068828;28;20096;-77
2022/11/17 02:14:23;;;;;;;2.30;2.20;;;9.60;99.90;;;;;;5068623;28;20031;-77
2022/11/17 02:16:49;;;;;;;3.28;2.45;;;9.70;99.90;;;;;;5067405;28;20036;-77
2022/11/17 02:19:16;;;;;;;2.55;2.17;;;9.70;99.90;;;;;;5067219;28;20033;-77
2022/11/17 02:21:53;;;;;;;2.67;2.45;;;9.70;99.90;;;;;;5068371;28;20054;-74
2022/11/17 02:24:50;;;;;;;2.40;2.30;;;9.70;99.90;;;;;;5068489;28;20025;-77
2022/11/17 02:27:34;;;;;;;2.25;2.05;;;9.60;99.90;;;;;;5063963;28;20041;-77
2022/11/17 02:30:06;;;;;;;3.47;2.42;;;9.60;99.90;;;;;;5068076;28;20098;-77
2022/11/17 02:32:50;;;;;;;2.35;2.20;;;9.60;99.90;;;;;;5066996;28;20108;-77
2022/11/17 02:35:45;;;;;;;2.53;1.88;;;9.60;99.90;;;;;;5068207;28;20045;-77
2022/11/17 02:38:22;;;;;;;2.10;2.00;;;9.60;99.90;;;;;;5068000;28;20025;-78
2022/11/17 02:41:10;;;;;;;1.92;1.73;;;9.60;99.90;;;;;;5068119;28;20095;-77
2022/11/17 02:44:04;;;;;;;2.17;2.05;;;9.60;99.90;;;;;;5068096;28;20406;-75
2022/11/17 02:46:46;;;;;;;3.85;2.42;;;9.50;99.90;;;;;;5067999;28;20056;-77
2022/11/17 02:49:22;;;;;;;2.70;2.50;;;9.50;99.90;;;;;;5067899;28;20025;-77
2022/11/17 02:51:52;;;;;;;3.92;2.90;;;9.50;99.90;;;;;;5066545;28;20055;-75
2022/11/17 02:54:20;;;;;;;3.22;2.95;;;9.40;99.90;;;;;;5067433;28;20119;-75
2022/11/17 02:56:45;;;;;;;3.05;2.85;;;9.40;99.90;;;;;;5067385;28;20021;-75
2022/11/17 02:59:15;;;;;;;2.88;2.67;;;9.30;99.90;;;;;;5067556;28;20497;-75
2022/11/17 03:02:01;;;;;;;2.83;2.63;;;9.30;99.90;;;;;;5067816;28;20370;-75
2022/11/17 03:04:55;;;;;;;3.00;2.47;;;9.30;99.90;;;;;;5061829;28;20505;-74
2022/11/17 03:07:49;;;;;;;2.05;1.95;;;9.30;99.90;;;;;;5054454;28;20021;-77
2022/11/17 03:10:27;;;;;;;2.72;2.20;;;9.40;99.90;;;;;;5052999;28;20029;-77
2022/11/17 03:13:09;;;;;;;2.25;2.05;;;9.50;99.90;;;;;;5054127;28;20028;-77
2022/11/17 03:16:08;;;;;;;2.73;2.53;;;9.50;99.90;;;;;;5052864;28;20028;-75
2022/11/17 03:19:01;;;;;;;2.40;2.30;;;9.60;99.90;;;;;;5053882;28;20119;-75
2022/11/17 03:21:54;;;;;;;2.15;2.03;;;9.60;99.90;;;;;;5054139;28;20025;-77
2022/11/17 03:24:26;;;;;;;3.30;2.30;;;9.60;99.90;;;;;;5044129;28;20041;-77
2022/11/17 03:27:22;;;;;;;3.10;2.20;;;9.60;99.90;;;;;;5053984;28;20025;-75
2022/11/17 03:29:56;;;;;;;3.42;2.58;;;9.60;99.90;;;;;;5052606;28;20036;-77
2022/11/17 03:32:23;;;;;;;2.70;2.50;;;9.70;99.90;;;;;;5053749;28;20036;-77
2022/11/17 03:34:55;;;;;;;2.95;2.50;;;9.70;99.90;;;;;;5053711;28;20079;-77
2022/11/17 03:37:22;;;;;;;3.13;2.88;;;9.70;99.90;;;;;;5052532;28;20032;-77
2022/11/17 03:39:57;;;;;;;2.53;2.33;;;9.80;99.90;;;;;;5053570;28;20033;-77
2022/11/17 03:42:29;;;;;;;4.63;2.30;;;9.80;99.90;;;;;;5053676;28;20032;-75
2022/11/17 03:45:05;;;;;;;3.22;3.00;;;9.80;99.90;;;;;;5053568;28;20110;-77
2022/11/17 03:47:32;;;;;;;2.75;2.55;;;9.80;99.90;;;;;;5053608;28;20437;-75
2022/11/17 03:50:23;;;;;;;3.25;3.05;;;9.90;99.90;;;;;;5052210;28;20028;-75
2022/11/17 03:52:50;;;;;;;4.18;3.20;;;9.90;99.90;;;;;;5053375;28;20099;-77
2022/11/17 03:55:15;;;;;;;4.13;3.40;;;9.90;99.90;;;;;;5052122;28;20027;-76
2022/11/17 03:57:59;;;;;;;3.55;3.28;;;9.90;99.90;;;;;;5051983;28;20119;-77
2022/11/17 04:00:25;;;;;;;3.72;3.42;;;9.90;99.90;;;;;;5051944;28;20174;-77
2022/11/17 04:02:57;;;;;;;3.67;3.38;;;9.90;99.90;;;;;;5052104;28;20457;-77
2022/11/17 04:05:23;;;;;;;3.60;3.30;;;9.90;99.90;;;;;;5051936;28;20032;-78
2022/11/17 04:07:49;;;;;;;3.22;3.03;;;9.90;99.90;;;;;;5051898;28;20032;-78
2022/11/17 04:10:19;;;;;;;3.65;3.40;;;9.90;99.90;;;;;;5053251;28;20040;-77
2022/11/17 04:18:14;;;;;;;3.95;3.65;;;9.90;99.90;;;;;;5053052;28;20075;-77
2022/11/17 04:20:40;;;;;;;3.45;3.17;;;9.90;99.90;;;;;;5052978;28;20052;-75
2022/11/17 04:23:10;;;;;;;3.20;3.00;;;10.00;99.90;;;;;;5052929;28;20463;-74
2022/11/17 04:28:35;;;;;;;3.00;2.80;;;10.00;99.90;;;;;;5053028;28;20036;-77
2022/11/17 04:31:05;;;;;;;3.30;3.10;;;10.00;99.90;;;;;;5051455;28;20029;-77
2022/11/17 04:33:31;;;;;;;2.85;2.70;;;10.00;99.90;;;;;;5052771;28;20025;-77
2022/11/17 04:35:57;;;;;;;2.95;2.75;;;10.00;99.90;;;;;;5052671;28;20514;-77
2022/11/17 04:38:23;;;;;;;3.35;2.75;;;10.00;99.90;;;;;;5051134;28;20025;-74
2022/11/17 04:43:32;;;;;;;3.33;3.13;;;10.00;99.90;;;;;;5052647;28;20048;-75
2022/11/17 04:45:59;;;;;;;5.00;3.40;;;10.00;99.90;;;;;;5051215;28;20032;-75
2022/11/17 04:48:25;;;;;;;3.35;3.15;;;10.00;99.90;;;;;;5051066;28;20029;-75
2022/11/17 04:50:55;;;;;;;6.03;3.63;;;10.00;99.90;;;;;;5051097;28;20040;-75
2022/11/17 04:53:21;;;;;;;3.72;3.42;;;10.00;99.90;;;;;;5050816;28;20101;-75
2022/11/17 04:55:47;;;;;;;4.22;3.92;;;9.90;99.90;;;;;;5051781;28;20025;-75
2022/11/17 04:58:13;;;;;;;5.07;4.32;;;9.80;99.90;;;;;;5052112;28;20021;-75
2022/11/17 05:00:38;;;;;;;4.97;4.43;;;9.80;99.90;;;;;;5052350;28;20028;-75
2022/11/17 05:03:04;;;;;;;5.20;4.45;;;9.70;99.90;;;;;;5051963;28;20031;-75
2022/11/17 05:05:30;;;;;;;4.90;4.50;;;9.70;99.90;;;;;;5052144;28;20029;-75
2022/11/17 05:07:56;;;;;;;4.20;3.90;;;9.60;99.90;;;;;;5050700;28;20479;-74
2022/11/17 05:13:20;;;;;;;4.90;4.50;;;9.60;99.90;;;;;;5051897;28;20024;-74
2022/11/17 05:13:24;;;;;;;5.05;4.55;;;9.60;99.90;;;;;;5051677;28;20069;-78
2022/11/17 05:18:41;;;;;;;4.47;4.07;;;9.50;99.90;;;;;;5031908;28;20557;-77
2022/11/17 05:21:08;;;;;;;4.38;3.97;;;9.60;99.90;;;;;;5030571;28;20017;-75
2022/11/17 05:23:53;;;;;;;5.90;4.15;;;9.50;99.90;;;;;;5031809;28;20018;-74
2022/11/17 05:26:22;;;;;;;5.60;3.97;;;9.40;99.90;;;;;;5030650;28;20059;-77
2022/11/17 05:28:47;;;;;;;7.68;4.72;;;9.30;99.90;;;;;;5031303;28;20028;-77
2022/11/17 05:31:14;;;;;;;5.60;5.10;;;9.30;99.90;;;;;;5031730;28;20029;-77
2022/11/17 05:33:40;;;;;;;6.32;5.13;;;9.20;99.90;;;;;;5030232;28;20045;-77
2022/11/17 05:36:06;;;;;;;5.30;4.90;;;9.20;99.90;;;;;;5031693;28;20029;-75
2022/11/17 05:38:32;;;;;;;5.53;4.90;;;9.20;99.90;;;;;;5032443;28;20282;-74
2022/11/17 05:40:57;;;;;;;6.18;5.57;;;9.30;99.90;;;;;;5050203;28;20081;-74
2022/11/17 05:43:23;;;;;;;5.97;4.45;;;9.30;99.90;;;;;;5048542;28;20112;-74
2022/11/17 05:45:49;;;;;;;4.28;3.92;;;9.40;99.90;;;;;;5049749;28;20025;-74
2022/11/17 05:48:14;;;;;;;5.75;4.03;;;9.40;99.90;;;;;;5049985;28;20025;-74
2022/11/17 05:50:40;;;;;;;4.18;3.88;;;9.40;99.90;;;;;;5048624;28;20094;-75
2022/11/17 05:53:07;;;;;;;4.05;3.70;;;9.50;99.90;;;;;;5049739;28;20044;-75
2022/11/17 05:55:32;;;;;;;5.35;3.38;;;9.50;99.90;;;;;;5049895;28;20074;-77
2022/11/17 05:58:32;;;;;;;3.58;3.28;;;9.50;99.90;;;;;;5050048;28;20494;-77
2022/11/17 06:00:58;;;;;;;3.35;3.15;;;9.50;99.90;;;;;;5045161;28;20127;-75
2022/11/17 06:03:43;;;;;;;6.07;3.28;;;9.50;99.90;;;;;;5049903;28;20103;-75
2022/11/17 06:06:09;;;;;;;3.50;2.97;;;9.50;99.90;;;;;;5043937;28;20071;-77
2022/11/17 06:08:35;;;;;;;2.97;2.78;;;9.50;99.90;;;;;;5031340;28;20048;-77
2022/11/17 06:11:01;;;;;;;2.88;2.65;;;9.60;99.90;;;;;;5030235;28;20048;-77
2022/11/17 06:13:27;;;;;;;2.80;2.60;;;9.60;99.90;;;;;;5034540;28;20021;-77
2022/11/17 06:15:59;;;;;;;2.83;2.63;;;9.60;99.90;;;;;;5051179;28;20024;-77
2022/11/17 06:18:33;;;;;;;3.42;2.80;;;9.70;99.90;;;;;;5061725;28;20024;-75
2022/11/17 06:21:02;;;;;;;3.20;3.00;;;9.70;99.90;;;;;;5071395;28;20020;-75
2022/11/17 06:23:31;;;;;;;3.40;2.70;;;9.80;99.90;;;;;;5070641;28;20021;-75
2022/11/17 06:25:58;;;;;;;3.05;2.85;;;9.80;99.90;;;;;;5069092;28;20025;-79
2022/11/17 06:28:27;;;;;;;4.22;2.95;;;9.80;99.90;;;;;;5069358;28;20258;-79
2022/11/17 06:30:54;;;;;;;3.28;3.05;;;9.90;99.90;;;;;;5070095;28;20021;-79
2022/11/17 06:33:20;;;;;;;5.93;3.92;;;9.90;99.90;;;;;;5070019;28;20020;-79
2022/11/17 06:35:48;;;;;;;7.85;2.75;;;9.90;99.90;;;;;;5068402;28;20028;-79
2022/11/17 06:38:13;;;;;;;2.35;2.13;;;10.00;99.90;;;;;;5069272;28;20021;-79
2022/11/17 06:40:39;;;;;;;2.92;2.63;;;10.00;99.90;;;;;;5072262;28;20128;-79
2022/11/17 06:43:11;;;;;;;2.80;2.60;;;10.00;99.90;;;;;;5072512;28;20043;-79
2022/11/17 06:45:46;;;;;;;6.07;2.45;;;10.00;99.90;;;;;;5068047;28;20490;-81
2022/11/17 06:48:14;;;;;;;5.95;2.88;;;10.10;99.90;;;;;;5075611;28;20498;-79
2022/11/17 06:50:41;;;;;;;3.25;2.97;;;10.10;99.90;;;;;;5068559;28;20120;-79
2022/11/17 06:53:08;;;;;;;2.40;2.30;;;10.10;99.90;;;;;;5055814;28;20048;-79
2022/11/17 06:55:35;;;;;;;2.92;2.72;;;10.10;99.90;;;;;;5054696;28;20471;-79
2022/11/17 06:58:03;;;;;;;5.32;3.63;;;10.20;99.90;;;;;;5054454;28;20024;-79
2022/11/17 07:00:29;;;;;;;3.63;3.33;;;10.20;99.90;;;;;;5055709;28;20026;-79
2022/11/17 07:02:59;;;;;;;5.95;3.17;;;10.20;99.90;;;;;;5054184;28;20079;-79
2022/11/17 07:05:26;;;;;;;3.50;3.30;;;10.20;99.90;;;;;;5055635;28;20021;-82
2022/11/17 07:07:55;;;;;;;3.30;3.10;;;10.20;99.90;;;;;;5054318;28;20028;-79
2022/11/17 07:10:20;;;;;;;4.13;3.80;;;10.30;99.90;;;;;;5054410;28;20021;-79
2022/11/17 07:12:46;;;;;;;4.03;3.67;;;10.30;99.90;;;;;;5054333;28;20032;-80
2022/11/17 07:15:12;;;;;;;4.40;3.95;;;10.30;99.90;;;;;;5055616;28;20028;-79
2022/11/17 07:17:37;;;;;;;4.43;4.03;;;10.30;99.90;;;;;;5055468;28;20025;-79
2022/11/17 07:20:04;;;;;;;7.57;3.78;;;10.30;99.90;;;;;;5054293;28;20102;-81
2022/11/17 07:22:30;;;;;;;5.72;4.05;;;10.40;99.90;;;;;;5054249;28;20024;-81
2022/11/17 07:24:56;;;;;;;8.05;5.03;;;10.40;99.90;;;;;;5055276;28;20040;-79
2022/11/17 07:27:21;;;;;;;5.30;4.82;;;10.40;99.90;;;;;;5055414;28;20025;-79
2022/11/17 07:29:47;;;;;;;5.60;4.50;;;10.40;99.90;;;;;;5055378;28;20029;-79
2022/11/17 07:32:13;;;;;;;6.50;4.18;;;10.40;99.90;;;;;;5055181;28;20410;-79
2022/11/17 07:34:39;;;;;;;4.40;4.10;;;10.50;99.90;;;;;;5055272;28;20068;-79
2022/11/17 07:37:06;;;;;;;4.40;4.00;;;10.50;99.90;;;;;;5055236;28;20028;-79
2022/11/17 07:39:32;;;;;;;3.85;3.55;;;10.50;99.90;;;;;;5053846;28;20036;-79
2022/11/17 07:41:57;;;;;;;5.15;4.65;;;10.60;99.90;;;;;;5053876;28;20017;-79
2022/11/17 07:44:23;;;;;;;11.07;6.30;;;10.60;99.90;;;;;;5045428;28;20083;-79
2022/11/17 07:46:49;;;;;;;6.60;6.00;;;10.50;99.90;;;;;;5035160;28;20029;-78
2022/11/17 07:49:14;;;;;;;9.23;6.03;;;10.50;99.90;;;;;;5035194;28;20057;-79
2022/11/17 07:51:40;;;;;;;9.77;7.28;;;10.60;99.90;;;;;;5038757;28;20021;-79
2022/11/17 07:54:06;;;;;;;14.00;8.18;;;10.50;99.90;;;;;;5053137;28;20040;-79
2022/11/17 07:56:33;;;;;;;12.52;8.13;;;10.50;99.90;;;;;;5054946;28;20036;-78
2022/11/17 07:58:59;;;;;;;15.95;8.70;;;10.40;99.90;;;;;;5054733;28;20025;-79
2022/11/17 08:01:26;;;;;;;10.20;8.90;;;10.40;99.90;;;;;;5051429;28;20025;-78
2022/11/17 08:03:52;;;;;;;13.23;8.65;;;10.40;99.90;;;;;;5053040;28;20387;-78
2022/11/17 08:06:18;;;;;;;16.17;9.05;;;10.40;99.90;;;;;;5051074;28;20025;-80
2022/11/17 08:08:47;;;;;;;10.15;8.18;;;10.40;99.90;;;;;;5052673;28;20035;-78
2022/11/17 08:11:13;;;;;;;15.25;8.93;;;10.40;99.90;;;;;;5051565;28;20028;-78
2022/11/17 08:13:40;;;;;;;13.40;8.77;;;10.40;99.90;;;;;;5049415;28;20056;-78
2022/11/17 08:16:06;;;;;;;16.38;8.77;;;10.50;99.90;;;;;;5052511;28;20079;-78
2022/11/17 08:18:32;;;;;;;11.52;8.63;;;10.50;99.90;;;;;;5051121;28;20079;-78
2022/11/17 08:21:09;;;;;;;10.20;8.13;;;10.60;99.90;;;;;;5049299;28;20013;-78
2022/11/17 08:23:36;;;;;;;9.10;8.13;;;10.60;99.90;;;;;;5049595;28;20497;-78
2022/11/17 08:26:03;;;;;;;9.38;7.68;;;10.70;99.90;;;;;;5052389;28;20025;-78
2022/11/17 08:28:29;;;;;;;13.70;8.57;;;10.70;99.90;;;;;;5052024;28;20048;-78
2022/11/17 08:30:55;;;;;;;15.18;8.65;;;10.70;99.90;;;;;;5051479;28;20021;-78
2022/11/17 08:33:20;;;;;;;18.55;11.27;;;10.70;99.90;;;;;;5051922;28;20107;-79
2022/11/17 08:35:46;;;;;;;10.70;9.15;;;10.70;99.90;;;;;;5050586;28;20029;-78
2022/11/17 08:38:14;;;;;;;12.27;8.48;;;10.60;99.90;;;;;;5051965;28;20092;-78
2022/11/17 08:40:40;;;;;;;9.32;7.95;;;10.60;99.90;;;;;;5052134;28;20025;-78
2022/11/17 08:43:07;;;;;;;11.20;8.20;;;10.60;99.90;;;;;;5053830;28;20024;-78
2022/11/17 08:45:32;;;;;;;12.85;8.90;;;10.70;99.90;;;;;;5053793;28;20021;-78
2022/11/17 08:47:58;;;;;;;8.85;7.70;;;10.60;99.90;;;;;;5052313;28;20364;-78
2022/11/17 08:50:24;;;;;;;11.23;9.05;;;10.70;99.90;;;;;;5052295;28;20033;-78
2022/11/17 08:52:51;;;;;;;12.38;8.88;;;10.70;99.90;;;;;;5050328;28;20052;-78
2022/11/17 08:55:16;;;;;;;11.13;9.00;;;10.80;99.90;;;;;;5049425;28;20360;-78
2022/11/17 08:57:42;;;;;;;13.02;8.45;;;10.80;99.90;;;;;;5050526;28;20024;-78
2022/11/17 09:00:09;;;;;;;14.02;9.05;;;10.90;99.90;;;;;;5050157;28;20043;-78
2022/11/17 09:02:36;;;;;;;13.65;9.18;;;10.90;99.90;;;;;;5048495;28;20511;-78
2022/11/17 09:05:03;;;;;;;13.13;9.65;;;11.00;99.90;;;;;;5050501;28;20021;-78
2022/11/17 09:07:32;;;;;;;13.70;7.55;;;11.00;99.90;;;;;;5052013;28;20058;-78
2022/11/17 09:09:59;;;;;;;9.57;7.70;;;11.00;99.90;;;;;;5050538;28;20025;-79
2022/11/17 09:12:24;;;;;;;11.48;8.68;;;11.10;99.90;;;;;;5050795;28;20025;-78
2022/11/17 09:14:50;;;;;;;10.63;8.48;;;11.20;99.90;;;;;;5052158;28;20023;-79
2022/11/17 09:17:16;;;;;;;11.40;8.30;;;11.20;99.90;;;;;;5052090;28;20027;-78
2022/11/17 09:19:42;;;;;;;11.00;7.80;;;11.20;99.90;;;;;;5050686;28;20047;-79
2022/11/17 09:22:07;;;;;;;8.52;7.68;;;11.30;99.90;;;;;;5050586;28;20028;-79
2022/11/17 09:24:33;;;;;;;10.55;8.07;;;11.30;99.90;;;;;;5050547;28;20028;-78
2022/11/17 09:27:01;;;;;;;10.82;7.47;;;11.40;99.90;;;;;;5052045;28;20060;-78
2022/11/17 09:29:27;;;;;;;10.27;7.53;;;11.60;99.90;;;;;;5051961;28;20025;-79
2022/11/17 09:31:53;;;;;;;8.65;7.47;;;11.70;99.90;;;;;;5050456;28;20414;-78
2022/11/17 09:34:19;;;;;;;9.85;7.88;;;11.80;99.90;;;;;;5050457;28;20593;-78
2022/11/17 09:36:45;;;;;;;15.25;9.50;;;11.90;99.90;;;;;;5051886;28;20024;-78
2022/11/17 09:39:11;;;;;;;12.30;10.52;;;12.00;99.90;;;;;;5050249;28;20410;-78
2022/11/17 09:41:49;;;;;;;14.45;9.95;;;12.10;99.90;;;;;;5051849;28;20025;-78
2022/11/17 09:44:38;;;;;;;17.38;11.65;;;12.10;99.90;;;;;;5051506;28;20029;-78
2022/11/17 09:47:22;;;;;;;17.17;12.35;;;12.10;99.90;;;;;;5051730;28;20031;-78
2022/11/17 09:50:02;;;;;;;17.52;13.43;;;12.10;99.90;;;;;;5050293;28;20025;-80
2022/11/17 09:52:47;;;;;;;18.38;12.32;;;12.10;99.90;;;;;;5049951;28;20041;-78
2022/11/17 09:55:35;;;;;;;17.60;12.82;;;12.10;99.90;;;;;;5050416;28;20029;-80
2022/11/17 09:58:31;;;;;;;16.02;12.38;;;11.90;99.90;;;;;;5050055;28;20448;-78
2022/11/17 10:00:57;;;;;;;17.05;12.52;;;11.80;99.90;;;;;;5051568;28;20018;-78
2022/11/17 10:03:32;;;;;;;16.33;12.38;;;11.80;99.90;;;;;;5051438;28;20035;-78
2022/11/17 10:06:00;;;;;;;17.70;12.35;;;11.70;99.90;;;;;;5051428;28;20049;-78
2022/11/17 10:08:47;;;;;;;16.42;12.02;;;11.60;99.90;;;;;;5051173;28;20029;-78
2022/11/17 10:11:31;;;;;;;19.23;12.02;;;11.60;99.90;;;;;;5051330;28;20088;-78
2022/11/17 10:14:01;;;;;;;16.95;12.77;;;11.60;99.90;;;;;;5049918;28;20434;-80
2022/11/17 10:16:26;;;;;;;16.33;12.13;;;11.60;99.90;;;;;;5055128;28;20024;-78
2022/11/17 10:18:52;;;;;;;18.40;12.52;;;11.60;99.90;;;;;;5053909;28;20021;-79
2022/11/17 10:21:18;;;;;;;17.05;12.32;;;11.70;99.90;;;;;;5055139;28;20036;-78
2022/11/17 10:23:49;;;;;;;18.40;12.27;;;11.70;99.90;;;;;;5055120;28;20364;-78
2022/11/17 10:26:15;;;;;;;14.30;11.60;;;11.70;99.90;;;;;;5053722;28;20029;-78
2022/11/17 10:28:41;;;;;;;15.35;11.98;;;11.70;99.90;;;;;;5055151;28;20108;-78
2022/11/17 10:31:11;;;;;;;15.68;12.05;;;11.70;99.90;;;;;;5055085;28;20147;-78
2022/11/17 10:33:41;;;;;;;17.38;13.05;;;11.70;99.90;;;;;;5054979;28;20032;-79
2022/11/17 10:36:22;;;;;;;16.80;11.50;;;11.60;99.90;;;;;;5054979;28;20108;-78
2022/11/17 10:38:50;;;;;;;15.93;12.43;;;11.60;99.90;;;;;;5053508;28;20048;-78
2022/11/17 10:41:19;;;;;;;16.52;12.85;;;11.60;99.90;;;;;;5054965;28;20025;-78
2022/11/17 10:44:22;;;;;;;19.73;12.80;;;11.60;99.90;;;;;;5050453;28;20557;-79
2022/11/17 10:46:59;;;;;;;16.80;13.07;;;11.60;99.90;;;;;;5034970;28;20029;-78
2022/11/17 10:49:32;;;;;;;16.65;13.18;;;11.60;99.90;;;;;;5034769;28;20149;-78
2022/11/17 10:52:14;;;;;;;16.38;12.82;;;11.60;99.90;;;;;;5042439;28;20021;-78
2022/11/17 10:54:40;;;;;;;17.75;13.02;;;11.60;99.90;;;;;;5054574;28;20116;-78
2022/11/17 10:57:11;;;;;;;17.52;12.52;;;11.60;99.90;;;;;;5053545;28;20113;-78
2022/11/17 10:59:50;;;;;;;15.77;12.93;;;11.60;99.90;;;;;;5053383;28;20412;-78
2022/11/17 11:02:32;;;;;;;19.45;14.05;;;11.60;99.90;;;;;;5053313;28;20025;-78
2022/11/17 11:05:12;;;;;;;18.17;12.52;;;11.60;99.90;;;;;;5054422;28;20108;-80
2022/11/17 11:07:38;;;;;;;21.85;14.10;;;11.70;99.90;;;;;;5053213;28;20036;-78
2022/11/17 11:10:30;;;;;;;18.85;14.82;;;11.70;99.90;;;;;;5052936;28;20174;-78
2022/11/17 11:13:15;;;;;;;21.13;15.10;;;11.80;99.90;;;;;;5053230;28;20022;-78
2022/11/17 11:15:41;;;;;;;20.88;15.75;;;11.80;99.90;;;;;;5033241;28;20026;-78
2022/11/17 11:18:15;;;;;;;20.90;16.20;;;11.90;99.90;;;;;;5034327;28;20022;-77
2022/11/17 11:20:44;;;;;;;20.33;15.98;;;12.00;99.90;;;;;;5034264;28;20028;-79
2022/11/17 11:23:27;;;;;;;21.20;16.60;;;12.00;99.90;;;;;;5034192;28;20029;-77
2022/11/17 11:26:29;;;;;;;21.13;16.00;;;12.10;99.90;;;;;;5033624;28;20496;-77
2022/11/17 11:29:16;;;;;;;19.52;14.32;;;12.20;99.90;;;;;;5032591;28;20030;-77
2022/11/17 11:31:54;;;;;;;22.85;17.42;;;12.20;99.90;;;;;;5033886;28;20180;-77
2022/11/17 11:35:02;;;;;;;21.92;15.90;;;12.30;99.90;;;;;;5034001;28;20021;-77
2022/11/17 11:37:45;;;;;;;22.02;15.90;;;12.50;99.90;;;;;;5032436;28;20029;-79
2022/11/17 11:40:24;;;;;;;19.35;14.73;;;12.50;99.90;;;;;;5033460;28;20022;-77
2022/11/17 11:43:17;;;;;;;18.92;14.50;;;12.60;99.90;;;;;;5034980;28;20487;-77
2022/11/17 11:46:16;;;;;;;19.70;14.15;;;12.60;99.90;;;;;;5049945;28;20026;-79
2022/11/17 11:48:41;;;;;;;20.67;14.50;;;12.60;99.90;;;;;;5035068;28;20033;-77
2022/11/17 11:51:29;;;;;;;16.52;13.55;;;12.60;99.90;;;;;;5034977;28;20028;-77
2022/11/17 11:54:11;;;;;;;19.15;15.52;;;12.70;99.90;;;;;;5033564;28;20496;-79
2022/11/17 11:56:40;;;;;;;22.65;16.23;;;12.60;99.90;;;;;;5034784;28;20100;-77
2022/11/17 11:59:17;;;;;;;19.10;14.38;;;12.70;99.90;;;;;;5033609;28;20033;-77
2022/11/17 12:02:11;;;;;;;20.63;15.45;;;12.70;99.90;;;;;;5034703;28;20017;-77
2022/11/17 12:04:46;;;;;;;20.50;14.55;;;12.80;99.90;;;;;;5034286;28;20113;-78
2022/11/17 12:07:21;;;;;;;22.27;14.93;;;12.80;99.90;;;;;;5033242;28;20112;-77
2022/11/17 12:10:10;;;;;;;19.42;15.32;;;12.90;99.90;;;;;;5034336;28;20060;-77
2022/11/17 12:12:39;;;;;;;23.58;16.65;;;13.00;99.90;;;;;;5033289;28;20033;-77
2022/11/17 12:15:19;;;;;;;21.55;16.50;;;13.00;99.90;;;;;;5049878;28;20075;-77
2022/11/17 12:17:51;;;;;;;21.92;16.08;;;13.00;99.90;;;;;;5054359;28;20494;-77
2022/11/17 12:20:42;;;;;;;24.05;16.73;;;13.00;99.90;;;;;;5053740;28;20025;-75
2022/11/17 12:23:36;;;;;;;24.92;16.42;;;13.10;99.90;;;;;;5052983;28;20036;-75
2022/11/17 12:26:03;;;;;;;22.27;16.83;;;13.00;99.90;;;;;;5051435;28;20072;-75
2022/11/17 12:28:40;;;;;;;27.70;18.23;;;13.10;99.90;;;;;;5051427;28;20028;-74
2022/11/17 12:31:41;;;;;;;31.75;18.73;;;13.00;99.90;;;;;;5052776;28;20059;-75
2022/11/17 12:34:08;;;;;;;28.38;18.95;;;13.10;99.90;;;;;;5049801;28;20056;-75
2022/11/17 12:36:35;;;;;;;25.30;18.05;;;13.10;99.90;;;;;;5050390;28;20467;-75
2022/11/17 12:39:03;;;;;;;29.08;16.83;;;13.10;99.90;;;;;;5049057;28;20016;-74
2022/11/17 12:41:47;;;;;;;23.80;15.80;;;13.10;99.90;;;;;;5050858;28;20055;-75
2022/11/17 12:44:31;;;;;;;30.17;18.75;;;13.20;99.90;;;;;;5050975;28;20032;-75
2022/11/17 12:47:30;;;;;;;31.02;18.63;;;13.20;99.90;;;;;;5050987;28;20056;-75
2022/11/17 12:50:14;;;;;;;31.15;18.08;;;13.20;99.90;;;;;;5047902;28;20025;-75
2022/11/17 12:52:42;;;;;;;28.88;18.52;;;13.20;99.90;;;;;;5052079;28;20438;-74
2022/11/17 12:55:23;;;;;;;29.23;20.02;;;13.20;99.90;;;;;;5051026;28;20052;-75
2022/11/17 12:57:56;;;;;;;29.92;19.13;;;13.20;99.90;;;;;;5051105;28;20024;-74
2022/11/17 13:00:24;;;;;;;31.65;21.05;;;13.20;99.90;;;;;;5052336;28;20021;-75
2022/11/17 13:02:55;;;;;;;31.33;21.52;;;13.20;99.90;;;;;;5050881;28;20395;-74
2022/11/17 13:05:24;;;;;;;38.30;22.15;;;13.20;99.90;;;;;;5051054;28;20032;-75
2022/11/17 13:08:16;;;;;;;32.35;21.00;;;13.20;99.90;;;;;;5052218;28;20098;-75
2022/11/17 13:10:42;;;;;;;32.75;20.45;;;13.20;99.90;;;;;;5052046;28;20032;-75
2022/11/17 13:13:19;;;;;;;38.97;20.52;;;13.10;99.90;;;;;;5052093;28;20025;-74
2022/11/17 13:15:54;;;;;;;30.42;20.15;;;13.20;99.90;;;;;;5032119;28;20029;-74
2022/11/17 13:18:38;;;;;;;28.05;20.45;;;13.20;99.90;;;;;;5030416;28;20022;-75
2022/11/17 13:21:16;;;;;;;31.90;21.15;;;13.20;99.90;;;;;;5031993;28;20022;-74
2022/11/17 13:23:44;;;;;;;31.95;20.40;;;13.30;99.90;;;;;;5030777;28;20052;-75
2022/11/17 13:26:15;;;;;;;32.75;21.15;;;13.20;99.90;;;;;;5030487;28;20025;-75
2022/11/17 13:28:43;;;;;;;35.53;20.73;;;13.20;99.90;;;;;;5031788;28;20029;-77
2022/11/17 13:31:19;;;;;;;28.27;20.33;;;13.30;99.90;;;;;;5031758;28;20105;-74
2022/11/17 13:34:06;;;;;;;31.30;21.05;;;13.20;99.90;;;;;;5030383;28;20487;-75
2022/11/17 13:36:32;;;;;;;35.78;20.50;;;13.10;99.90;;;;;;5030471;28;20452;-75